Time;durP1;ratioP1;P1;durP2;ratioP2;P2;SDS_P1;SDS_P2;PMS_P1;PMS_P2;Temp;Humidity;BMP_temperature;BMP_pressure;BME280_temperature;BME280_humidity;BME280_pressure;Samples;Min_cycle;Max_cycle;Signal;HPM_P1;HPM_P2
2022/05/14 00:01:40;;;;;;;4.78;2.75;;;;;;;21.67;31.66;101661.13;5049174;28;20059;-69
2022/05/14 00:04:09;;;;;;;5.65;2.35;;;;;;;21.64;31.84;101674.25;5059188;28;20051;-69
2022/05/14 00:06:36;;;;;;;5.88;2.55;;;;;;;21.61;31.90;101677.31;5049592;28;20051;-69
2022/05/14 00:09:05;;;;;;;4.65;2.40;;;;;;;21.59;32.47;101672.94;5046090;28;20056;-69
2022/05/14 00:14:19;;;;;;;6.05;2.65;;;;;;;21.53;32.46;101670.81;5057204;28;20055;-69
2022/05/14 00:16:47;;;;;;;4.30;2.55;;;;;;;21.51;32.22;101665.44;5050971;28;20456;-69
2022/05/14 00:19:14;;;;;;;5.03;2.47;;;;;;;21.49;32.23;101666.63;5056206;28;20113;-69
2022/05/14 00:21:41;;;;;;;5.65;2.50;;;;;;;21.45;32.58;101668.81;5055389;28;20094;-69
2022/05/14 00:24:09;;;;;;;5.10;2.17;;;;;;;21.44;32.80;101675.38;5051701;28;20048;-68
2022/05/14 00:26:37;;;;;;;4.95;2.47;;;;;;;21.42;32.35;101666.34;5050269;28;20049;-69
2022/05/14 00:29:05;;;;;;;3.60;2.10;;;;;;;21.39;32.89;101655.63;5051380;28;20078;-69
2022/05/14 00:31:32;;;;;;;4.40;2.30;;;;;;;21.36;32.58;101661.44;5046494;28;20115;-69
2022/05/14 00:33:59;;;;;;;3.83;2.22;;;;;;;21.34;32.49;101663.47;5041012;28;20048;-69
2022/05/14 00:36:25;;;;;;;3.90;2.30;;;;;;;21.31;32.92;101666.56;5041402;28;20045;-69
2022/05/14 00:38:54;;;;;;;4.15;2.28;;;;;;;21.30;33.10;101664.81;5059463;28;20075;-69
2022/05/14 00:41:21;;;;;;;3.97;2.47;;;;;;;21.27;32.90;101656.84;5057413;28;20052;-69
2022/05/14 00:43:51;;;;;;;3.90;2.08;;;;;;;21.27;33.03;101665.13;5050652;28;20101;-69
2022/05/14 00:46:35;;;;;;;4.60;2.35;;;;;;;21.24;33.35;101665.44;5050231;28;20086;-69
2022/05/14 00:49:03;;;;;;;4.72;2.53;;;;;;;21.19;33.32;101662.25;5054821;28;20131;-69
2022/05/14 00:51:34;;;;;;;3.72;2.00;;;;;;;21.15;33.23;101658.91;5057715;28;20048;-69
2022/05/14 00:54:09;;;;;;;4.45;2.13;;;;;;;21.16;33.13;101665.28;5054837;28;20060;-69
2022/05/14 00:56:42;;;;;;;4.03;2.00;;;;;;;21.13;33.30;101666.47;5056658;28;20044;-69
2022/05/14 00:59:13;;;;;;;6.45;2.38;;;;;;;21.11;33.29;101664.88;5057516;28;20036;-69
2022/05/14 01:01:41;;;;;;;6.00;2.65;;;;;;;21.07;33.49;101672.59;5053141;28;20063;-69
2022/05/14 01:04:09;;;;;;;3.78;2.28;;;;;;;21.04;32.94;101661.84;5061902;28;20045;-69
2022/05/14 01:06:38;;;;;;;4.05;2.22;;;;;;;21.01;33.02;101664.88;5054569;28;20127;-69
2022/05/14 01:09:06;;;;;;;3.90;2.05;;;;;;;21.00;33.21;101667.81;5052637;28;20045;-69
2022/05/14 01:11:36;;;;;;;3.83;1.92;;;;;;;20.99;33.03;101668.84;5044954;28;20075;-69
2022/05/14 01:14:03;;;;;;;6.50;2.42;;;;;;;20.94;33.08;101655.47;5064448;28;20117;-69
2022/05/14 01:16:30;;;;;;;3.58;1.88;;;;;;;20.93;33.44;101661.13;5053669;28;20063;-69
2022/05/14 01:18:58;;;;;;;3.63;2.05;;;;;;;20.90;33.33;101662.34;5058699;28;20491;-69
2022/05/14 01:21:30;;;;;;;6.65;2.50;;;;;;;20.92;33.65;101667.72;5053763;28;20048;-69
2022/05/14 01:26:43;;;;;;;3.40;1.70;;;;;;;20.79;33.52;101668.00;5064547;28;19939;-69
2022/05/14 01:29:13;;;;;;;4.55;2.25;;;;;;;20.82;33.07;101663.09;5046566;28;20048;-70
2022/05/14 01:31:41;;;;;;;4.10;1.70;;;;;;;20.78;33.49;101661.63;5053280;28;20079;-72
2022/05/14 01:34:11;;;;;;;4.07;1.85;;;;;;;20.78;33.43;101661.63;5056681;28;20053;-73
2022/05/14 01:36:39;;;;;;;3.13;1.75;;;;;;;20.74;33.18;101665.72;5055886;28;20118;-72
2022/05/14 01:39:07;;;;;;;3.25;1.80;;;;;;;20.70;33.13;101663.38;5058528;28;20044;-73
2022/05/14 01:41:34;;;;;;;5.22;1.95;;;;;;;20.66;33.57;101671.09;5048639;28;20044;-72
2022/05/14 01:44:01;;;;;;;3.58;1.98;;;;;;;20.65;33.60;101666.59;5080959;28;20056;-72
2022/05/14 01:46:27;;;;;;;4.50;2.03;;;;;;;20.63;33.33;101662.25;5053527;28;20512;-72
2022/05/14 01:48:55;;;;;;;3.33;1.65;;;;;;;20.61;33.52;101667.91;5063269;28;20055;-72
2022/05/14 01:51:22;;;;;;;3.63;1.80;;;;;;;20.59;33.47;101664.41;5049406;28;20582;-72
2022/05/14 01:53:49;;;;;;;4.10;1.65;;;;;;;20.58;33.45;101670.09;5053227;28;20040;-72
2022/05/14 01:56:16;;;;;;;4.13;1.80;;;;;;;20.57;33.42;101669.22;5053288;28;20078;-72
2022/05/14 01:58:43;;;;;;;3.50;1.67;;;;;;;20.54;33.43;101661.22;5060468;28;20102;-73
2022/05/14 02:01:20;;;;;;;4.57;1.70;;;;;;;20.56;33.30;101667.47;5042305;28;20052;-73
2022/05/14 02:03:53;;;;;;;3.65;1.73;;;;;;;20.52;33.70;101666.91;5054029;28;20053;-73
2022/05/14 02:06:22;;;;;;;3.22;1.52;;;;;;;20.49;33.51;101667.22;5053260;28;20496;-73
2022/05/14 02:08:49;;;;;;;4.93;1.73;;;;;;;20.47;33.43;101671.13;5059615;28;20048;-73
2022/05/14 02:11:16;;;;;;;5.28;1.75;;;;;;;20.46;33.11;101672.13;5083991;28;20047;-72
2022/05/14 02:13:44;;;;;;;3.50;1.83;;;;;;;20.45;33.34;101664.88;5047242;28;20102;-73
2022/05/14 02:16:12;;;;;;;5.00;1.75;;;;;;;20.41;33.32;101663.44;5048433;28;20073;-73
2022/05/14 02:18:39;;;;;;;3.35;1.65;;;;;;;20.38;33.27;101670.13;5055120;28;20097;-73
2022/05/14 02:21:06;;;;;;;3.67;1.58;;;;;;;20.36;33.02;101661.09;5073438;28;20067;-73
2022/05/14 02:23:36;;;;;;;4.35;1.67;;;;;;;20.35;33.14;101658.47;5052768;28;20047;-73
2022/05/14 02:26:07;;;;;;;2.25;1.48;;;;;;;20.31;33.08;101665.28;5053841;28;20486;-73
2022/05/14 02:28:34;;;;;;;3.22;1.60;;;;;;;20.29;33.26;101667.31;5061593;28;20464;-73
2022/05/14 02:31:01;;;;;;;3.88;1.48;;;;;;;20.27;33.12;101678.50;5050079;28;20056;-72
2022/05/14 02:33:28;;;;;;;3.83;1.73;;;;;;;20.26;33.35;101670.38;5049431;28;20029;-72
2022/05/14 02:35:54;;;;;;;4.03;2.03;;;;;;;20.23;33.37;101688.09;5053250;28;20044;-72
2022/05/14 02:38:21;;;;;;;4.30;1.70;;;;;;;20.22;32.99;101679.94;5058212;28;20036;-72
2022/05/14 02:40:48;;;;;;;5.28;1.90;;;;;;;20.19;33.03;101681.09;5062903;28;20048;-72
2022/05/14 02:43:15;;;;;;;3.35;1.50;;;;;;;20.19;33.39;101682.97;5068084;28;20509;-72
2022/05/14 02:45:42;;;;;;;3.42;1.60;;;;;;;20.18;33.20;101686.78;5051522;28;20055;-72
2022/05/14 02:48:10;;;;;;;4.93;1.88;;;;;;;20.18;33.69;101686.78;5055590;28;20041;-72
2022/05/14 02:50:37;;;;;;;3.40;1.67;;;;;;;20.15;33.23;101685.19;5044223;28;20059;-72
2022/05/14 02:53:04;;;;;;;3.60;1.52;;;;;;;20.14;33.09;101687.06;5045233;28;20138;-72
2022/05/14 02:55:31;;;;;;;4.72;1.60;;;;;;;20.13;33.02;101687.19;5054720;28;20079;-72
2022/05/14 02:57:58;;;;;;;3.60;1.77;;;;;;;20.10;33.38;101685.59;5059288;28;20106;-72
2022/05/14 03:00:25;;;;;;;3.85;1.75;;;;;;;20.09;33.30;101681.09;5055066;28;20057;-72
2022/05/14 03:02:52;;;;;;;3.38;1.50;;;;;;;20.07;33.02;101688.66;5056444;28;20066;-72
2022/05/14 03:05:21;;;;;;;4.53;2.03;;;;;;;20.07;33.44;101685.03;5066337;28;20040;-73
2022/05/14 03:07:48;;;;;;;4.63;1.75;;;;;;;20.05;33.11;101687.91;5069687;28;20067;-72
2022/05/14 03:10:16;;;;;;;3.70;2.28;;;;;;;20.03;33.06;101684.44;5058430;28;20117;-72
2022/05/14 03:12:43;;;;;;;4.13;1.67;;;;;;;20.03;33.26;101680.81;5051916;28;20106;-72
2022/05/14 03:15:11;;;;;;;3.75;1.90;;;;;;;20.01;33.59;101677.34;5048037;28;20486;-72
2022/05/14 03:17:39;;;;;;;3.95;1.90;;;;;;;19.97;33.22;101679.50;5051832;28;20055;-72
2022/05/14 03:20:10;;;;;;;3.85;1.88;;;;;;;19.99;33.28;101691.25;5052331;28;20460;-72
2022/05/14 03:22:39;;;;;;;4.07;1.63;;;;;;;19.96;33.29;101683.25;5051228;28;20045;-72
2022/05/14 03:25:07;;;;;;;2.85;1.58;;;;;;;19.94;33.44;101690.81;5054028;28;20048;-72
2022/05/14 03:27:33;;;;;;;4.10;1.60;;;;;;;19.92;33.36;101680.94;5059370;28;20105;-72
2022/05/14 03:30:00;;;;;;;4.45;1.98;;;;;;;19.91;33.75;101681.97;5054065;28;20052;-72
2022/05/14 03:32:27;;;;;;;3.42;1.90;;;;;;;19.88;33.57;101683.09;5079293;28;20566;-73
2022/05/14 03:34:54;;;;;;;3.88;1.60;;;;;;;19.87;33.55;101680.50;5061573;28;20494;-73
2022/05/14 03:37:23;;;;;;;3.55;1.70;;;;;;;19.86;33.21;101684.25;5054454;28;20045;-72
2022/05/14 03:39:50;;;;;;;4.35;1.63;;;;;;;19.83;33.63;101682.69;5040146;28;20053;-72
2022/05/14 03:42:18;;;;;;;3.15;1.90;;;;;;;19.81;33.28;101679.19;5045781;28;20052;-73
2022/05/14 03:44:46;;;;;;;3.50;1.75;;;;;;;19.78;33.42;101679.47;5052644;28;20040;-73
2022/05/14 03:47:13;;;;;;;3.15;1.70;;;;;;;19.77;33.82;101677.72;5061467;28;20652;-73
2022/05/14 03:49:40;;;;;;;5.03;1.90;;;;;;;19.74;33.34;101673.38;5067374;28;20098;-73
2022/05/14 03:52:08;;;;;;;3.50;1.95;;;;;;;19.73;33.47;101676.28;5053522;28;20103;-73
2022/05/14 03:54:35;;;;;;;4.32;2.03;;;;;;;19.71;33.78;101670.91;5052173;28;20101;-72
2022/05/14 03:57:02;;;;;;;4.70;2.05;;;;;;;19.68;33.41;101682.19;5055492;28;20048;-73
2022/05/14 03:59:29;;;;;;;3.25;1.70;;;;;;;19.67;33.36;101690.63;5064722;28;20448;-73
2022/05/14 04:01:55;;;;;;;4.20;1.80;;;;;;;19.64;33.41;101686.25;5079033;28;20076;-73
2022/05/14 04:04:22;;;;;;;4.45;2.15;;;;;;;19.63;33.92;101681.75;5052791;28;20464;-73
2022/05/14 04:06:49;;;;;;;3.00;1.50;;;;;;;19.61;33.44;101688.41;5047364;28;20143;-73
2022/05/14 04:09:15;;;;;;;5.75;2.30;;;;;;;19.60;33.37;101687.53;5051157;28;20045;-73
2022/05/14 04:11:42;;;;;;;3.03;1.60;;;;;;;19.60;33.82;101684.78;5063139;28;20167;-73
2022/05/14 04:14:09;;;;;;;4.20;1.75;;;;;;;19.58;33.91;101684.06;5038786;28;20462;-72
2022/05/14 04:16:35;;;;;;;5.65;1.80;;;;;;;19.57;33.85;101692.47;5050699;28;20098;-73
2022/05/14 04:19:03;;;;;;;4.30;1.75;;;;;;;19.56;33.96;101691.59;5085110;28;20086;-73
2022/05/14 04:21:29;;;;;;;5.07;1.75;;;;;;;19.54;33.78;101688.09;5056433;28;20049;-73
2022/05/14 04:23:56;;;;;;;3.33;1.45;;;;;;;19.53;34.00;101689.09;5051805;28;20048;-73
2022/05/14 04:26:24;;;;;;;3.45;1.50;;;;;;;19.52;33.84;101697.53;5050792;28;20525;-72
2022/05/14 04:28:51;;;;;;;3.63;1.67;;;;;;;19.52;33.96;101700.28;5060155;28;20083;-73
2022/05/14 04:31:21;;;;;;;3.65;1.65;;;;;;;19.51;33.96;101704.06;5051123;28;20056;-73
2022/05/14 04:33:48;;;;;;;5.00;2.00;;;;;;;19.52;33.72;101700.28;5043359;28;20098;-72
2022/05/14 04:36:15;;;;;;;3.53;1.70;;;;;;;19.50;33.55;101700.44;5048023;28;20444;-72
2022/05/14 04:38:42;;;;;;;3.75;1.38;;;;;;;19.49;33.70;101701.44;5059228;28;20102;-72
2022/05/14 04:41:08;;;;;;;3.22;1.42;;;;;;;19.49;33.78;101706.94;5060828;28;20052;-72
2022/05/14 04:43:35;;;;;;;3.28;1.70;;;;;;;19.48;33.69;101710.69;5048270;28;20083;-72
2022/05/14 04:46:07;;;;;;;3.88;1.73;;;;;;;19.52;33.96;101703.88;5052026;28;20102;-72
2022/05/14 04:48:35;;;;;;;2.50;1.37;;;;;;;19.49;34.23;101711.56;5052774;28;20554;-72
2022/05/14 04:51:03;;;;;;;4.40;1.90;;;;;;;19.50;33.92;101711.44;5051662;28;20052;-72
2022/05/14 04:53:30;;;;;;;3.30;1.70;;;;;;;19.51;33.81;101712.31;5047293;28;20044;-72
2022/05/14 04:55:57;;;;;;;4.68;1.40;;;;;;;19.52;33.90;101705.81;5067290;28;20049;-72
2022/05/14 04:58:23;;;;;;;4.05;1.67;;;;;;;19.52;33.83;101716.81;5062622;28;20049;-72
2022/05/14 05:00:50;;;;;;;2.80;1.33;;;;;;;19.55;33.72;101716.53;5051552;28;20448;-73
2022/05/14 05:03:17;;;;;;;4.20;1.48;;;;;;;19.55;33.47;101714.63;5082800;28;20041;-72
2022/05/14 05:06:03;;;;;;;2.85;1.60;;;;;;;19.60;33.95;101717.00;5032870;28;20057;-72
2022/05/14 05:08:31;;;;;;;4.68;1.85;;;;;;;19.64;34.05;101713.81;5052648;28;20044;-72
2022/05/14 05:10:58;;;;;;;5.53;1.77;;;;;;;19.69;33.90;101721.63;5050684;28;20048;-72
2022/05/14 05:13:28;;;;;;;3.20;1.45;;;;;;;19.80;33.92;101717.91;5050800;28;20044;-72
2022/05/14 05:15:55;;;;;;;4.10;1.45;;;;;;;19.84;33.60;101725.75;5082702;28;20098;-72
2022/05/14 05:18:22;;;;;;;3.92;2.00;;;;;;;19.93;34.15;101718.53;5049022;28;20045;-72
2022/05/14 05:20:49;;;;;;;5.65;1.83;;;;;;;20.03;33.54;101724.91;5041888;28;20048;-72
2022/05/14 05:23:23;;;;;;;4.97;2.03;;;;;;;20.19;33.39;101724.34;5050496;28;20051;-72
2022/05/14 05:25:50;;;;;;;3.75;1.52;;;;;;;20.30;33.77;101721.47;5051556;28;20109;-73
2022/05/14 05:28:17;;;;;;;4.43;1.70;;;;;;;20.46;33.48;101735.59;5062882;28;20044;-72
2022/05/14 05:30:44;;;;;;;2.60;1.55;;;;;;;20.61;33.06;101734.13;5055257;28;20049;-72
2022/05/14 05:33:13;;;;;;;3.30;1.52;;;;;;;20.81;32.96;101743.28;5041399;28;20494;-73
2022/05/14 05:35:40;;;;;;;3.35;1.50;;;;;;;20.94;33.16;101746.56;5051967;28;20049;-72
2022/05/14 05:38:07;;;;;;;2.63;1.30;;;;;;;21.10;33.16;101746.84;5057226;28;20076;-73
2022/05/14 05:40:34;;;;;;;3.10;1.60;;;;;;;21.27;32.86;101751.63;5054970;28;20040;-72
2022/05/14 05:43:01;;;;;;;3.25;1.40;;;;;;;21.43;32.09;101745.47;5058833;28;20036;-73
2022/05/14 05:45:30;;;;;;;3.28;1.60;;;;;;;21.57;31.94;101747.75;5058752;28;20045;-72
2022/05/14 05:47:57;;;;;;;4.10;1.27;;;;;;;21.71;31.76;101753.78;5053114;28;20468;-72
2022/05/14 05:50:25;;;;;;;4.32;1.25;;;;;;;21.84;31.60;101751.53;5066071;28;20101;-72
2022/05/14 05:52:53;;;;;;;3.50;1.70;;;;;;;21.96;31.81;101755.84;5055809;28;20052;-72
2022/05/14 05:58:06;;;;;;;3.67;1.60;;;;;;;22.19;31.12;101757.16;5065953;28;20048;-72
2022/05/14 06:00:33;;;;;;;3.85;1.58;;;;;;;22.29;31.05;101757.97;5045770;28;20041;-71
2022/05/14 06:02:59;;;;;;;5.82;1.55;;;;;;;22.39;31.38;101761.56;5055616;28;20045;-71
2022/05/14 06:05:27;;;;;;;4.10;1.73;;;;;;;22.51;31.06;101767.72;5055124;28;20056;-71
2022/05/14 06:07:54;;;;;;;3.30;1.50;;;;;;;22.58;31.13;101762.41;5053578;28;20057;-71
2022/05/14 06:10:23;;;;;;;4.85;1.55;;;;;;;22.69;30.79;101767.72;5053365;28;20056;-71
2022/05/14 06:12:50;;;;;;;5.75;1.85;;;;;;;22.76;30.41;101766.94;5059325;28;20048;-71
2022/05/14 06:15:20;;;;;;;2.72;1.33;;;;;;;22.89;29.88;101776.75;5061705;28;20068;-71
2022/05/14 06:17:49;;;;;;;4.97;1.40;;;;;;;22.95;30.83;101767.78;5038889;28;20074;-71
2022/05/14 06:20:17;;;;;;;4.07;1.80;;;;;;;23.05;30.54;101769.44;5050938;28;20108;-71
2022/05/14 06:22:44;;;;;;;5.50;1.58;;;;;;;23.16;30.68;101771.06;5052665;28;20098;-71
2022/05/14 06:25:12;;;;;;;3.80;1.52;;;;;;;23.26;30.00;101770.97;5050393;28;20041;-71
2022/05/14 06:27:40;;;;;;;3.38;1.73;;;;;;;23.34;30.45;101769.13;5066188;28;20728;-71
2022/05/14 06:30:07;;;;;;;5.20;1.50;;;;;;;23.45;30.38;101771.63;5054754;28;20036;-71
2022/05/14 06:32:35;;;;;;;4.80;1.67;;;;;;;23.55;29.65;101771.53;5054322;28;20057;-71
2022/05/14 06:35:02;;;;;;;4.75;1.63;;;;;;;23.63;29.77;101774.38;5056346;28;20098;-71
2022/05/14 06:37:28;;;;;;;3.50;1.50;;;;;;;23.72;29.77;101773.34;5054538;28;20052;-72
2022/05/14 06:39:55;;;;;;;3.20;1.67;;;;;;;23.81;29.40;101769.56;5051402;28;20070;-65
2022/05/14 06:42:22;;;;;;;2.40;1.38;;;;;;;23.89;29.54;101777.94;5050252;28;20086;-65
2022/05/14 06:44:49;;;;;;;3.42;1.60;;;;;;;23.97;29.60;101768.78;5049284;28;20053;-65
2022/05/14 06:47:16;;;;;;;3.40;1.35;;;;;;;24.05;29.51;101779.91;5061013;28;20054;-65
2022/05/14 06:49:42;;;;;;;3.75;1.50;;;;;;;24.12;29.18;101783.78;5060149;28;20127;-65
2022/05/14 06:52:13;;;;;;;3.38;1.58;;;;;;;24.21;29.07;101776.38;5054085;28;20118;-65
2022/05/14 06:54:42;;;;;;;3.97;1.80;;;;;;;24.27;29.71;101786.78;5054395;28;20048;-65
2022/05/14 06:57:09;;;;;;;3.67;1.50;;;;;;;24.32;29.34;101789.91;5058717;28;20047;-65
2022/05/14 06:59:36;;;;;;;6.05;2.00;;;;;;;24.37;29.30;101790.28;5062289;28;20456;-66
2022/05/14 07:02:04;;;;;;;4.30;1.80;;;;;;;24.44;29.54;101783.03;5052937;28;20059;-65
2022/05/14 07:07:17;;;;;;;4.72;1.98;;;;;;;24.54;29.23;101778.16;5070476;28;20131;-66
2022/05/14 07:09:44;;;;;;;4.82;1.73;;;;;;;24.61;29.06;101784.78;5050243;28;20079;-66
2022/05/14 07:12:11;;;;;;;3.92;1.77;;;;;;;24.69;28.94;101791.38;5051401;28;20048;-66
2022/05/14 07:14:43;;;;;;;4.68;1.90;;;;;;;24.76;29.10;101789.66;5051912;28;20455;-66
2022/05/14 07:17:11;;;;;;;3.25;1.70;;;;;;;24.82;29.13;101788.97;5044430;28;20040;-65
2022/05/14 07:19:38;;;;;;;4.25;1.98;;;;;;;24.86;29.12;101788.47;5070361;28;20068;-65
2022/05/14 07:22:07;;;;;;;4.30;2.10;;;;;;;24.91;28.62;101788.81;5051154;28;20118;-65
2022/05/14 07:24:33;;;;;;;4.72;1.95;;;;;;;24.96;28.50;101789.16;5044725;28;20048;-65
2022/05/14 07:27:03;;;;;;;5.25;1.98;;;;;;;25.05;28.82;101790.03;5066966;28;20056;-67
2022/05/14 07:29:31;;;;;;;4.35;2.20;;;;;;;25.11;28.73;101796.81;5052507;28;20083;-65
2022/05/14 07:31:58;;;;;;;6.07;2.08;;;;;;;25.15;28.89;101789.84;5046779;28;20045;-65
2022/05/14 07:34:25;;;;;;;5.57;2.03;;;;;;;25.21;28.61;101790.00;5050526;28;20646;-65
2022/05/14 07:36:59;;;;;;;4.22;2.08;;;;;;;25.27;28.54;101782.91;5052249;28;20056;-65
2022/05/14 07:39:29;;;;;;;6.85;2.13;;;;;;;25.36;28.39;101785.50;5054697;28;20110;-65
2022/05/14 07:41:59;;;;;;;5.93;2.40;;;;;;;25.43;28.41;101782.88;5055219;28;20524;-65
2022/05/14 07:44:36;;;;;;;5.57;2.30;;;;;;;25.49;28.37;101782.16;5049676;28;20045;-65
2022/05/14 07:47:03;;;;;;;6.45;2.15;;;;;;;25.53;28.13;101777.97;5046137;28;20487;-65
2022/05/14 07:49:30;;;;;;;4.75;2.03;;;;;;;25.59;28.28;101776.44;5056829;28;20136;-65
2022/05/14 07:51:57;;;;;;;6.15;2.40;;;;;;;25.66;28.09;101780.25;5049291;28;20074;-66
2022/05/14 07:54:24;;;;;;;5.55;2.53;;;;;;;25.72;28.28;101779.53;5050543;28;20048;-67
2022/05/14 07:56:52;;;;;;;5.63;2.28;;;;;;;25.76;28.00;101776.22;5049284;28;20044;-66
2022/05/14 07:59:18;;;;;;;7.15;2.15;;;;;;;25.81;27.88;101772.00;5048041;28;20579;-66
2022/05/14 08:01:45;;;;;;;5.88;2.40;;;;;;;25.87;28.23;101776.84;5046567;28;20052;-67
2022/05/14 08:04:12;;;;;;;4.28;2.28;;;;;;;25.93;28.06;101773.38;5066007;28;20107;-66
2022/05/14 08:06:39;;;;;;;4.22;2.20;;;;;;;26.00;28.36;101774.38;5064234;28;20056;-66
2022/05/14 08:09:06;;;;;;;6.30;2.38;;;;;;;26.06;27.85;101779.22;5064292;28;20051;-66
2022/05/14 08:11:33;;;;;;;6.05;2.30;;;;;;;26.13;27.85;101774.66;5061637;28;20468;-65
2022/05/14 08:14:00;;;;;;;5.82;2.60;;;;;;;26.18;27.80;101774.13;5056067;28;20048;-66
2022/05/14 08:16:27;;;;;;;4.57;2.10;;;;;;;26.25;28.14;101772.34;5052722;28;20607;-65
2022/05/14 08:18:54;;;;;;;4.55;1.90;;;;;;;26.31;27.90;101774.41;5046625;28;20052;-65
2022/05/14 08:26:53;;;;;;;4.15;2.00;;;;;;;26.50;28.04;101769.25;5068407;28;20098;-66
2022/05/14 08:29:20;;;;;;;4.07;1.95;;;;;;;26.57;27.71;101771.28;5061198;28;20452;-66
2022/05/14 08:31:48;;;;;;;5.80;2.42;;;;;;;26.61;27.29;101775.44;5048211;28;20041;-69
2022/05/14 08:34:15;;;;;;;6.70;2.13;;;;;;;26.67;27.50;101778.38;5046042;28;20084;-69
2022/05/14 08:36:42;;;;;;;5.15;1.90;;;;;;;26.74;27.45;101782.13;5058671;28;20060;-67
2022/05/14 08:39:10;;;;;;;6.10;1.85;;;;;;;26.81;27.74;101777.56;5065489;28;20509;-65
2022/05/14 08:41:40;;;;;;;5.55;2.00;;;;;;;26.88;27.83;101775.75;5079833;28;20098;-67
2022/05/14 08:44:11;;;;;;;5.55;1.92;;;;;;;26.97;27.82;101778.50;5069694;28;20061;-66
2022/05/14 08:46:40;;;;;;;9.13;2.72;;;;;;;27.03;27.48;101778.59;5051041;28;20075;-66
2022/05/14 08:49:15;;;;;;;9.57;2.88;;;;;;;27.12;27.73;101777.47;5058258;28;20052;-66
2022/05/14 08:51:47;;;;;;;7.45;2.00;;;;;;;27.20;27.47;101774.63;5047046;28;20048;-66
2022/05/14 08:54:14;;;;;;;10.20;2.63;;;;;;;27.24;27.71;101773.19;5064334;28;20051;-67
2022/05/14 08:56:54;;;;;;;6.47;1.90;;;;;;;27.36;27.42;101770.78;5049384;28;20057;-66
2022/05/14 08:59:55;;;;;;;6.82;2.30;;;;;;;27.46;27.21;101770.53;5052328;28;20471;-66
2022/05/14 09:02:27;;;;;;;8.18;2.17;;;;;;;27.51;27.12;101771.66;5042222;28;20049;-66
2022/05/14 09:04:56;;;;;;;;;;;;;;;27.25;27.40;101768.50;5051937;28;20061;-64
2022/05/14 09:07:22;;;;;;;4.70;2.13;;;;;;;27.57;27.03;101765.38;5049657;28;19970;-65
2022/05/14 09:09:52;;;;;;;4.47;1.95;;;;;;;27.68;26.59;101769.59;5050211;28;20048;-66
2022/05/14 09:12:23;;;;;;;3.95;1.70;;;;;;;27.71;26.72;101769.22;5053042;28;20125;-66
2022/05/14 09:14:57;;;;;;;5.30;1.75;;;;;;;27.73;26.73;101769.91;5069463;28;20131;-65
2022/05/14 09:17:28;;;;;;;6.57;2.10;;;;;;;27.76;27.01;101774.22;5052804;28;20045;-65
2022/05/14 09:19:57;;;;;;;4.65;1.70;;;;;;;27.78;26.70;101770.19;5050327;28;20448;-64
2022/05/14 09:22:47;;;;;;;6.32;2.10;;;;;;;27.82;26.89;101765.97;5064672;28;20056;-66
2022/05/14 09:25:26;;;;;;;5.22;2.10;;;;;;;27.89;26.41;101760.47;5056554;28;20343;-65
2022/05/14 09:28:35;;;;;;;4.75;1.70;;;;;;;27.89;26.86;101755.75;5050631;28;20049;-64
2022/05/14 09:31:01;;;;;;;4.82;1.70;;;;;;;27.95;27.10;101765.25;5052268;28;20103;-66
2022/05/14 09:33:38;;;;;;;5.32;1.90;;;;;;;28.07;26.59;101768.44;5054390;28;20563;-65
2022/05/14 09:36:28;;;;;;;6.35;1.85;;;;;;;28.11;26.74;101764.19;5078880;28;20642;-66
2022/05/14 09:39:04;;;;;;;4.45;2.10;;;;;;;28.18;26.27;101757.66;5058414;28;20110;-66
2022/05/14 09:41:45;;;;;;;3.90;1.90;;;;;;;28.23;26.04;101757.94;5063221;28;20045;-66
2022/05/14 09:44:35;;;;;;;4.47;1.77;;;;;;;28.25;26.38;101757.75;5057816;28;20052;-68
2022/05/14 09:47:11;;;;;;;5.35;1.80;;;;;;;28.32;26.00;101756.78;5063194;28;20448;-65
2022/05/14 09:49:40;;;;;;;4.55;1.60;;;;;;;28.34;26.58;101760.19;5043745;28;20061;-66
2022/05/14 09:52:09;;;;;;;4.53;1.80;;;;;;;28.42;26.37;101761.16;5065567;28;20079;-66
2022/05/14 09:54:54;;;;;;;6.20;2.03;;;;;;;28.45;26.49;101744.88;5047964;28;20086;-65
2022/05/14 09:57:20;;;;;;;4.35;2.00;;;;;;;28.49;26.31;101750.94;5081982;28;20053;-66
2022/05/14 10:00:05;;;;;;;5.80;2.17;;;;;;;28.55;25.62;101755.72;5057905;28;20052;-66
2022/05/14 10:02:38;;;;;;;4.75;1.88;;;;;;;28.59;25.61;101754.25;5054421;28;20097;-68
2022/05/14 10:05:15;;;;;;;5.88;2.03;;;;;;;28.63;26.09;101758.38;5045916;28;20139;-64
2022/05/14 10:07:53;;;;;;;5.78;2.08;;;;;;;28.66;25.89;101753.25;5041022;28;20422;-68
2022/05/14 10:10:44;;;;;;;5.53;1.83;;;;;;;28.70;26.13;101750.94;5054249;28;20501;-68
2022/05/14 10:13:57;;;;;;;4.90;2.30;;;;;;;28.70;25.70;101750.94;5048971;28;20121;-68
2022/05/14 10:16:24;;;;;;;;;;;;;;;28.44;26.73;101751.50;5017301;28;20037;-66
2022/05/14 10:18:56;;;;;;;4.95;1.70;;;;;;;28.81;26.08;101757.97;5047513;28;19920;-68
2022/05/14 10:21:26;;;;;;;5.45;2.08;;;;;;;28.88;25.92;101747.69;5055316;28;20049;-69
2022/05/14 10:27:13;;;;;;;4.07;1.88;;;;;;;28.96;25.91;101745.63;5073233;28;20080;-66
2022/05/14 10:29:54;;;;;;;5.40;1.92;;;;;;;29.02;26.10;101747.59;5047074;28;20114;-66
2022/05/14 10:32:23;;;;;;;4.55;1.70;;;;;;;29.04;26.05;101741.81;5051684;28;20041;-66
2022/05/14 10:35:21;;;;;;;4.88;1.90;;;;;;;29.09;25.94;101748.53;5058949;28;20481;-66
2022/05/14 10:37:55;;;;;;;5.55;2.13;;;;;;;29.15;25.68;101744.91;5043334;28;20055;-66
2022/05/14 10:40:35;;;;;;;3.95;1.85;;;;;;;29.22;25.56;101745.00;5049844;28;20480;-66
2022/05/14 10:43:19;;;;;;;5.90;2.30;;;;;;;29.28;25.32;101751.69;5063366;28;20045;-66
2022/05/14 10:45:49;;;;;;;5.90;2.13;;;;;;;29.32;25.47;101747.44;5041179;28;20099;-66
2022/05/14 10:48:33;;;;;;;5.80;2.08;;;;;;;29.39;24.65;101745.59;5047557;28;20120;-66
2022/05/14 10:51:02;;;;;;;4.47;1.88;;;;;;;29.42;24.98;101748.81;5042514;28;20135;-66
2022/05/14 10:53:31;;;;;;;5.50;1.85;;;;;;;29.45;25.12;101741.94;5051917;28;20052;-66
2022/05/14 10:56:04;;;;;;;4.68;1.98;;;;;;;29.52;24.79;101754.06;5055662;28;20109;-66
2022/05/14 10:58:43;;;;;;;5.28;2.40;;;;;;;29.58;24.25;101749.56;5059046;28;20579;-66
2022/05/14 11:01:28;;;;;;;4.90;1.85;;;;;;;29.57;24.57;101751.50;5046521;28;20044;-66
2022/05/14 11:04:18;;;;;;;4.72;2.20;;;;;;;29.63;24.23;101747.03;5053371;28;20409;-65
2022/05/14 11:07:05;;;;;;;5.05;1.88;;;;;;;29.63;24.40;101742.28;5064910;28;20048;-65
2022/05/14 11:09:40;;;;;;;4.70;1.90;;;;;;;29.65;24.57;101740.13;5073359;28;20497;-66
2022/05/14 11:12:30;;;;;;;3.78;1.67;;;;;;;29.64;24.26;101749.63;5071675;28;20429;-65
2022/05/14 11:14:59;;;;;;;4.32;1.60;;;;;;;29.67;24.62;101745.53;5032858;28;20053;-65
2022/05/14 11:17:27;;;;;;;4.25;1.80;;;;;;;29.68;24.75;101747.25;5031491;28;20052;-65
2022/05/14 11:20:03;;;;;;;3.67;1.98;;;;;;;29.73;24.32;101737.16;5032965;28;20052;-65
2022/05/14 11:22:35;;;;;;;4.18;1.85;;;;;;;29.74;24.53;101736.09;5039878;28;20052;-66
2022/05/14 11:25:35;;;;;;;4.80;1.80;;;;;;;29.75;24.41;101735.03;5052493;28;20422;-65
2022/05/14 11:28:04;;;;;;;4.20;1.70;;;;;;;29.74;24.64;101727.69;5047886;28;20044;-65
2022/05/14 11:30:44;;;;;;;4.65;1.98;;;;;;;29.80;24.12;101729.69;5053285;28;20448;-65
2022/05/14 11:33:26;;;;;;;5.28;1.90;;;;;;;29.83;24.49;101731.19;5050574;28;20429;-65
2022/05/14 11:35:59;;;;;;;3.70;1.65;;;;;;;29.81;24.51;101734.19;5052359;28;20052;-65
2022/05/14 11:38:26;;;;;;;4.90;1.92;;;;;;;29.83;24.21;101732.06;5051334;28;20045;-66
2022/05/14 11:41:11;;;;;;;4.88;2.22;;;;;;;29.88;23.92;101728.66;5052680;28;20056;-65
2022/05/14 11:43:43;;;;;;;4.25;2.17;;;;;;;29.82;24.17;101724.72;5054149;28;20425;-65
2022/05/14 11:46:29;;;;;;;4.00;2.05;;;;;;;29.84;24.12;101736.59;5072554;28;20541;-65
2022/05/14 11:49:30;;;;;;;5.28;1.80;;;;;;;29.83;24.11;101734.84;5064317;28;20090;-65
2022/05/14 11:52:15;;;;;;;3.50;1.80;;;;;;;29.83;24.08;101723.66;5051766;28;20109;-65
2022/05/14 11:54:49;;;;;;;5.75;2.10;;;;;;;29.88;23.87;101723.91;5041983;28;20044;-65
2022/05/14 11:57:32;;;;;;;4.75;2.10;;;;;;;29.90;23.48;101727.34;5059385;28;20409;-68
2022/05/14 12:00:06;;;;;;;4.20;1.80;;;;;;;29.93;23.87;101723.28;5040181;28;20053;-69
2022/05/14 12:02:45;;;;;;;3.38;1.70;;;;;;;29.96;23.66;101720.09;5031185;28;20073;-66